LZIBLQSA

Guest
Details From LZIB - Bratislava/M.R. Stefanik
To LQSA - Sarajevo
Flight Number -
Tags decoded
Created
Modified
Stats Distance 270 nm / 501 km
Max Altitude 0 ft / 0 m
Waypoints 7
Social Downloads 0
Likes 0
Share VATSIM

Download

Looking for another format? Having issues loading an existing format? Contact us
Advertisement - Login to hide

Notes

Requested: LZIB OB K DER KIS KG LQSA

Route

LZIB OB K DER KIS KG LQSA

ID Type Via Altitude Latitude Longitude Leg Dist Tot Dist Heading (true) Name
O LZIB APT - 0 ft / 0 m 48.16831˚ 17.21560˚ - 0 nm - Bratislava/M.R. Stefanik
OB GS - 0 ft / 0 m 48.16031˚ 17.23096˚ 0 nm 0 nm 128° / 128° GS
K NDB - 0 ft / 0 m 46.41300˚ 17.91141˚ 108 nm 109 nm 165° / 165° TAZAR NDB
DER VOR - 0 ft / 0 m 44.98413˚ 17.96946˚ 85 nm 195 nm 178° / 178° DERVENTA VOR-DME
KIS VOR - 0 ft / 0 m 44.01828˚ 18.06300˚ 58 nm 253 nm 176° / 176° SARAJEVO VOR-DME
KG NDB - 0 ft / 0 m 43.88141˚ 18.17701˚ 9 nm 262 nm 149° / 149° KOBILJACA NDB
O LQSA APT - 0 ft / 0 m 43.82460˚ 18.33150˚ 7 nm 270 nm 117° / 117° Sarajevo

Altitude Profile

Advertisement - Login to hide

Weather


0- 5 10 15 20 25 30 35+ Temperature / ° C

Clouds and Precipitation
Forecast for 2017-12-11 18:00 UTC. Updated 16 minutes ago

Ground ~20,000 ft ~40,000 ft Winds

LZIB

Details ICAO LZIB (BTS)
Name Bratislava/M.R. Stefanik
Region Slovakia
Timezone Europe/Bratislava (UTC+1.0)
Stats Elevation 436 ft / 133 m (AMSL)
Location 48.168314° 17.215597°
Runways 2
Magnetic Variation 4.403° E

METAR

LZIB 111730Z 17018G30KT CAVOK 13/07 Q0996 NOSIG

Decode

TAF

Not found

Departure Runways

ID Width Length Bearing (true) Bearing (mag) Surface Threshold Offset Overrun Length
04 197 ft / 60 m 9,540 ft / 2,908 m 43.80° 39.40° Concrete 0 ft / 0 m 7 ft / 2 m
13 148 ft / 45 m 9,688 ft / 2,953 m 134.02° 129.62° Concrete 0 ft / 0 m 98 ft / 30 m
22 197 ft / 60 m 9,540 ft / 2,908 m 223.82° 219.42° Concrete 0 ft / 0 m 49 ft / 15 m
31 148 ft / 45 m 9,688 ft / 2,953 m 314.04° 309.64° Concrete 0 ft / 0 m 810 ft / 247 m

LQSA

Details ICAO LQSA (SJJ)
Name Sarajevo
Region Bosnia and Herzegovinia
Timezone Europe/Sarajevo (UTC+1.0)
Stats Elevation 1,708 ft / 521 m (AMSL)
Location 43.824597° 18.331500°
Runways 1
Magnetic Variation 4.221° E

METAR

LQSA 111730Z 14014KT 100V180 9999 -RA SCT025 BKN035 11/06 Q1011 WS ALL RWY NOSIG

Decode

TAF

Not found

Destination Runways

ID Width Length Bearing (true) Bearing (mag) Surface Threshold Offset Overrun Length
12 150 ft / 46 m 8,519 ft / 2,597 m 117.41° 113.19° Asphalt 333 ft / 102 m 0 ft / 0 m
30 150 ft / 46 m 8,519 ft / 2,597 m 297.43° 293.21° Asphalt 666 ft / 203 m 0 ft / 0 m

Approach Navaids

Runway Type Ident Frequency Range Bearing (true) Bearing (mag) Slope Elevation
12 Localiser BHS 110.70 MHz 25 nm / 46 km 117.00° 112.78° - 1,709 ft / 521 m (AMSL)
12 Glidescope BHS 110.70 MHz 25 nm / 46 km 117.00° 112.78° 3.20° 1,705 ft / 520 m (AMSL)
12 DME BHS 110.70 MHz 25 nm / 46 km - - - 1,705 ft / 520 m (AMSL)